createdAt,value
2024-01-21T00:09:58.846Z,83.0
2024-01-21T00:22:58.865Z,82.0
2024-01-21T00:35:59.001Z,81.0
2024-01-21T00:48:58.858Z,81.0
2024-01-21T01:01:58.849Z,82.0
2024-01-21T01:14:58.848Z,80.0
2024-01-21T01:27:58.868Z,80.0
2024-01-21T01:40:58.852Z,81.0
2024-01-21T01:53:58.873Z,82.0
2024-01-21T02:06:58.871Z,82.0
2024-01-21T02:19:58.863Z,82.0
2024-01-21T02:32:58.911Z,82.0
2024-01-21T02:45:58.932Z,82.0
2024-01-21T02:58:58.921Z,82.0
2024-01-21T03:11:58.873Z,82.0
2024-01-21T03:24:58.916Z,81.0
2024-01-21T03:37:58.880Z,78.0
2024-01-21T03:50:58.891Z,80.0
2024-01-21T04:03:58.987Z,81.0
2024-01-21T04:16:58.868Z,82.0
2024-01-21T04:29:58.938Z,83.0
2024-01-21T04:42:58.931Z,82.0
2024-01-21T04:55:58.913Z,81.0
2024-01-21T05:08:58.911Z,81.0
2024-01-21T05:21:58.928Z,82.0
2024-01-21T05:34:58.977Z,81.0
2024-01-21T05:47:58.962Z,81.0
2024-01-21T06:00:59.027Z,80.0
2024-01-21T06:13:58.933Z,80.0
2024-01-21T06:26:58.960Z,80.0
2024-01-21T06:40:58.931Z,81.0
2024-01-21T06:54:58.995Z,81.0
2024-01-21T07:09:59.114Z,81.0
2024-01-21T07:23:58.977Z,81.0
2024-01-21T07:37:58.989Z,78.0
2024-01-21T07:51:59.298Z,76.0
2024-01-21T08:05:59.187Z,70.0
2024-01-21T08:19:59.103Z,67.0
2024-01-21T08:33:59.025Z,64.0
2024-01-21T08:47:59.020Z,61.0
2024-01-21T09:01:59.046Z,57.0
2024-01-21T09:15:59.039Z,55.0
2024-01-21T09:29:59.146Z,53.0
2024-01-21T09:43:59.060Z,51.0
2024-01-21T09:57:59.060Z,48.0
2024-01-21T10:11:59.149Z,48.0
2024-01-21T10:25:59.067Z,45.0
2024-01-21T10:39:59.133Z,38.0
2024-01-21T10:53:59.053Z,39.0
2024-01-21T11:07:59.070Z,38.0
2024-01-21T11:21:59.096Z,36.0
2024-01-21T11:36:59.130Z,36.0
2024-01-21T11:50:59.103Z,35.0
2024-01-21T12:04:59.190Z,37.0
2024-01-21T12:18:59.199Z,39.0
2024-01-21T12:32:59.784Z,37.0
2024-01-21T12:46:59.136Z,37.0
2024-01-21T13:00:59.176Z,35.0
2024-01-21T13:14:59.149Z,34.0
2024-01-21T13:28:59.173Z,34.0
2024-01-21T13:42:59.217Z,36.0
2024-01-21T13:57:59.196Z,36.0
2024-01-21T14:13:00.017Z,36.0
2024-01-21T14:26:59.190Z,40.0
2024-01-21T14:40:59.194Z,42.0
2024-01-21T14:54:59.353Z,46.0
2024-01-21T15:08:59.202Z,48.0
2024-01-21T15:22:59.213Z,60.0
2024-01-21T15:36:59.240Z,64.0
2024-01-21T15:50:59.959Z,70.0
2024-01-21T16:05:00.014Z,74.0
2024-01-21T16:18:59.923Z,77.0
2024-01-21T16:32:59.261Z,78.0
2024-01-21T16:47:00.026Z,76.0
2024-01-21T16:59:59.268Z,77.0
2024-01-21T17:12:59.268Z,80.0
2024-01-21T17:25:59.254Z,82.0
2024-01-21T17:39:00.473Z,81.0
2024-01-21T17:51:59.265Z,82.0
2024-01-21T18:04:59.305Z,82.0
2024-01-21T18:17:59.989Z,79.0
2024-01-21T18:31:00.638Z,79.0
2024-01-21T18:43:59.561Z,80.0
2024-01-21T18:56:59.373Z,81.0
2024-01-21T19:09:59.305Z,81.0
2024-01-21T19:24:59.432Z,82.0
2024-01-21T19:38:00.641Z,83.0
2024-01-21T19:50:59.526Z,83.0
2024-01-21T20:04:00.361Z,82.0
2024-01-21T20:17:00.208Z,83.0
2024-01-21T20:29:59.947Z,82.0
2024-01-21T20:42:59.354Z,82.0
2024-01-21T20:55:59.478Z,83.0
2024-01-21T21:08:59.391Z,82.0
2024-01-21T21:21:59.462Z,82.0
2024-01-21T21:34:59.358Z,82.0
2024-01-21T21:47:59.407Z,82.0
2024-01-21T22:00:59.395Z,83.0
2024-01-21T22:13:59.360Z,82.0
2024-01-21T22:26:59.358Z,81.0
2024-01-21T22:39:59.348Z,79.0
2024-01-21T22:52:59.356Z,81.0
2024-01-21T23:05:59.562Z,81.0
2024-01-21T23:18:59.462Z,81.0
2024-01-21T23:31:59.347Z,80.0
2024-01-21T23:44:59.385Z,80.0
2024-01-21T23:57:59.371Z,78.0
